sensor_id;sensor_type;location;lat;lon;timestamp;pressure;altitude;pressure_sealevel;temperature;humidity
56992;BME280;42885;49.754;18.636;2022-09-13T00:01:50;98227.91;;;12.46;100.00
56992;BME280;42885;49.754;18.636;2022-09-13T00:04:21;98232.52;;;12.55;100.00
56992;BME280;42885;49.754;18.636;2022-09-13T00:06:52;98232.93;;;12.49;100.00
56992;BME280;42885;49.754;18.636;2022-09-13T00:09:22;98227.76;;;12.55;100.00
56992;BME280;42885;49.754;18.636;2022-09-13T00:11:53;98228.08;;;12.50;100.00
56992;BME280;42885;49.754;18.636;2022-09-13T00:14:24;98225.14;;;12.42;100.00
56992;BME280;42885;49.754;18.636;2022-09-13T00:16:55;98227.86;;;12.40;100.00
56992;BME280;42885;49.754;18.636;2022-09-13T00:19:26;98221.81;;;12.32;100.00
56992;BME280;42885;49.754;18.636;2022-09-13T00:21:57;98226.50;;;12.34;100.00
56992;BME280;42885;49.754;18.636;2022-09-13T00:24:28;98227.01;;;12.14;100.00
56992;BME280;42885;49.754;18.636;2022-09-13T00:26:59;98224.02;;;11.72;100.00
56992;BME280;42885;49.754;18.636;2022-09-13T00:29:30;98225.59;;;11.95;100.00
56992;BME280;42885;49.754;18.636;2022-09-13T00:32:01;98222.76;;;11.98;100.00
56992;BME280;42885;49.754;18.636;2022-09-13T00:34:32;98215.92;;;12.03;100.00
56992;BME280;42885;49.754;18.636;2022-09-13T00:37:03;98211.61;;;11.81;100.00
56992;BME280;42885;49.754;18.636;2022-09-13T00:39:35;98216.18;;;11.85;100.00
56992;BME280;42885;49.754;18.636;2022-09-13T00:42:10;98213.05;;;11.60;100.00
56992;BME280;42885;49.754;18.636;2022-09-13T00:44:59;98221.06;;;11.64;100.00
56992;BME280;42885;49.754;18.636;2022-09-13T00:47:40;98222.38;;;11.64;100.00
56992;BME280;42885;49.754;18.636;2022-09-13T00:50:17;98223.22;;;11.44;100.00
56992;BME280;42885;49.754;18.636;2022-09-13T00:52:51;98213.45;;;11.74;100.00
56992;BME280;42885;49.754;18.636;2022-09-13T00:55:31;98210.58;;;11.84;100.00
56992;BME280;42885;49.754;18.636;2022-09-13T00:57:59;98211.75;;;11.93;100.00
56992;BME280;42885;49.754;18.636;2022-09-13T01:00:30;98223.34;;;11.96;100.00
56992;BME280;42885;49.754;18.636;2022-09-13T01:03:03;98218.69;;;11.74;100.00
56992;BME280;42885;49.754;18.636;2022-09-13T01:05:44;98215.20;;;11.93;100.00
56992;BME280;42885;49.754;18.636;2022-09-13T01:08:15;98214.61;;;12.03;100.00
56992;BME280;42885;49.754;18.636;2022-09-13T01:10:50;98207.49;;;11.84;100.00
56992;BME280;42885;49.754;18.636;2022-09-13T01:13:27;98210.63;;;11.90;100.00
56992;BME280;42885;49.754;18.636;2022-09-13T01:15:59;98205.11;;;12.07;100.00
56992;BME280;42885;49.754;18.636;2022-09-13T01:18:31;98208.45;;;11.96;100.00
56992;BME280;42885;49.754;18.636;2022-09-13T01:30:00;98194.44;;;11.90;100.00
56992;BME280;42885;49.754;18.636;2022-09-13T01:32:42;98184.03;;;11.76;100.00
56992;BME280;42885;49.754;18.636;2022-09-13T01:35:19;98193.94;;;11.57;100.00
56992;BME280;42885;49.754;18.636;2022-09-13T01:37:56;98185.73;;;11.69;100.00
56992;BME280;42885;49.754;18.636;2022-09-13T01:46:07;98182.33;;;11.41;100.00
56992;BME280;42885;49.754;18.636;2022-09-13T01:48:51;98189.80;;;11.20;100.00
56992;BME280;42885;49.754;18.636;2022-09-13T01:51:26;98189.80;;;11.20;100.00
56992;BME280;42885;49.754;18.636;2022-09-13T01:54:17;98182.87;;;11.26;100.00
56992;BME280;42885;49.754;18.636;2022-09-13T01:57:00;98184.31;;;11.10;100.00
56992;BME280;42885;49.754;18.636;2022-09-13T01:59:51;98180.22;;;11.06;100.00
56992;BME280;42885;49.754;18.636;2022-09-13T02:02:30;98181.19;;;10.91;100.00
56992;BME280;42885;49.754;18.636;2022-09-13T02:05:06;98180.34;;;10.90;100.00
56992;BME280;42885;49.754;18.636;2022-09-13T02:07:42;98179.09;;;11.03;100.00
56992;BME280;42885;49.754;18.636;2022-09-13T02:10:28;98180.61;;;11.27;100.00
56992;BME280;42885;49.754;18.636;2022-09-13T02:12:56;98161.98;;;11.52;100.00
56992;BME280;42885;49.754;18.636;2022-09-13T02:15:35;98161.98;;;11.52;100.00
56992;BME280;42885;49.754;18.636;2022-09-13T02:18:18;98165.75;;;11.41;100.00
56992;BME280;42885;49.754;18.636;2022-09-13T02:20:50;98161.88;;;11.34;100.00
56992;BME280;42885;49.754;18.636;2022-09-13T02:23:37;98163.18;;;11.13;100.00
56992;BME280;42885;49.754;18.636;2022-09-13T02:26:10;98152.70;;;11.13;100.00
56992;BME280;42885;49.754;18.636;2022-09-13T02:28:54;98155.22;;;11.08;100.00
56992;BME280;42885;49.754;18.636;2022-09-13T02:31:25;98158.88;;;11.12;100.00
56992;BME280;42885;49.754;18.636;2022-09-13T02:34:09;98152.46;;;10.96;100.00
56992;BME280;42885;49.754;18.636;2022-09-13T02:36:35;98152.60;;;11.08;100.00
56992;BME280;42885;49.754;18.636;2022-09-13T02:39:18;98154.77;;;11.08;100.00
56992;BME280;42885;49.754;18.636;2022-09-13T02:44:44;98144.47;;;10.85;100.00
56992;BME280;42885;49.754;18.636;2022-09-13T02:47:33;98139.65;;;10.99;100.00
56992;BME280;42885;49.754;18.636;2022-09-13T02:50:28;98139.76;;;11.18;100.00
56992;BME280;42885;49.754;18.636;2022-09-13T02:53:20;98130.69;;;11.16;100.00
56992;BME280;42885;49.754;18.636;2022-09-13T02:55:52;98128.92;;;11.17;100.00
56992;BME280;42885;49.754;18.636;2022-09-13T02:58:37;98129.56;;;11.20;100.00
56992;BME280;42885;49.754;18.636;2022-09-13T03:01:09;98133.56;;;10.98;100.00
56992;BME280;42885;49.754;18.636;2022-09-13T03:03:39;98139.00;;;10.95;100.00
56992;BME280;42885;49.754;18.636;2022-09-13T03:06:10;98131.42;;;10.98;100.00
56992;BME280;42885;49.754;18.636;2022-09-13T03:08:41;98130.53;;;11.12;100.00
56992;BME280;42885;49.754;18.636;2022-09-13T03:19:47;98136.77;;;11.17;100.00
56992;BME280;42885;49.754;18.636;2022-09-13T03:22:29;98129.56;;;11.20;100.00
56992;BME280;42885;49.754;18.636;2022-09-13T03:25:14;98131.57;;;11.29;100.00
56992;BME280;42885;49.754;18.636;2022-09-13T03:30:21;98123.83;;;11.41;100.00
56992;BME280;42885;49.754;18.636;2022-09-13T03:33:16;98121.75;;;11.46;100.00
56992;BME280;42885;49.754;18.636;2022-09-13T03:36:01;98116.55;;;11.39;100.00
56992;BME280;42885;49.754;18.636;2022-09-13T03:39:14;98112.77;;;11.50;100.00
56992;BME280;42885;49.754;18.636;2022-09-13T03:41:12;98110.20;;;11.56;100.00
56992;BME280;42885;49.754;18.636;2022-09-13T03:44:03;98112.77;;;11.50;100.00
56992;BME280;42885;49.754;18.636;2022-09-13T03:46:33;98109.98;;;11.59;100.00
56992;BME280;42885;49.754;18.636;2022-09-13T03:49:08;98111.02;;;11.56;100.00
56992;BME280;42885;49.754;18.636;2022-09-13T03:51:44;98111.92;;;11.63;100.00
56992;BME280;42885;49.754;18.636;2022-09-13T03:54:25;98103.70;;;11.62;100.00
56992;BME280;42885;49.754;18.636;2022-09-13T03:57:08;98108.52;;;11.55;100.00
56992;BME280;42885;49.754;18.636;2022-09-13T03:59:42;98105.63;;;11.52;100.00
56992;BME280;42885;49.754;18.636;2022-09-13T04:02:14;98103.83;;;11.53;100.00
56992;BME280;42885;49.754;18.636;2022-09-13T04:04:46;98103.99;;;11.44;100.00
56992;BME280;42885;49.754;18.636;2022-09-13T04:07:19;98096.23;;;11.42;100.00
56992;BME280;42885;49.754;18.636;2022-09-13T04:10:01;98096.48;;;11.32;100.00
56992;BME280;42885;49.754;18.636;2022-09-13T04:12:31;98099.86;;;11.27;100.00
56992;BME280;42885;49.754;18.636;2022-09-13T04:15:04;98097.18;;;11.21;100.00
56992;BME280;42885;49.754;18.636;2022-09-13T04:17:35;98092.86;;;11.27;100.00
56992;BME280;42885;49.754;18.636;2022-09-13T04:20:06;98092.16;;;11.18;100.00
56992;BME280;42885;49.754;18.636;2022-09-13T04:22:37;98096.97;;;11.24;100.00
56992;BME280;42885;49.754;18.636;2022-09-13T04:25:08;98097.78;;;11.32;100.00
56992;BME280;42885;49.754;18.636;2022-09-13T04:27:39;98099.20;;;11.43;100.00
56992;BME280;42885;49.754;18.636;2022-09-13T04:30:10;98100.52;;;11.43;100.00
56992;BME280;42885;49.754;18.636;2022-09-13T04:32:42;98095.05;;;11.54;100.00
56992;BME280;42885;49.754;18.636;2022-09-13T04:35:13;98095.37;;;11.62;100.00
56992;BME280;42885;49.754;18.636;2022-09-13T04:38:04;98095.66;;;11.57;100.00
56992;BME280;42885;49.754;18.636;2022-09-13T04:40:35;98100.20;;;11.48;100.00
56992;BME280;42885;49.754;18.636;2022-09-13T04:43:08;98097.80;;;11.45;100.00
56992;BME280;42885;49.754;18.636;2022-09-13T04:45:38;98098.67;;;11.59;100.00
56992;BME280;42885;49.754;18.636;2022-09-13T04:48:10;98108.34;;;11.51;100.00
56992;BME280;42885;49.754;18.636;2022-09-13T04:50:41;98099.98;;;11.59;100.00
56992;BME280;42885;49.754;18.636;2022-09-13T04:53:13;98100.08;;;11.57;100.00
56992;BME280;42885;49.754;18.636;2022-09-13T04:55:44;98098.14;;;11.66;100.00
56992;BME280;42885;49.754;18.636;2022-09-13T04:58:15;98107.17;;;11.62;100.00
56992;BME280;42885;49.754;18.636;2022-09-13T05:00:45;98104.45;;;11.43;100.00
56992;BME280;42885;49.754;18.636;2022-09-13T05:03:17;98096.45;;;11.52;100.00
56992;BME280;42885;49.754;18.636;2022-09-13T05:05:48;98095.56;;;11.59;100.00
56992;BME280;42885;49.754;18.636;2022-09-13T05:08:19;98092.90;;;11.79;100.00
56992;BME280;42885;49.754;18.636;2022-09-13T05:10:49;98093.38;;;11.92;100.00
56992;BME280;42885;49.754;18.636;2022-09-13T05:13:33;98094.69;;;11.92;100.00
56992;BME280;42885;49.754;18.636;2022-09-13T05:16:07;98094.72;;;12.05;100.00
56992;BME280;42885;49.754;18.636;2022-09-13T05:18:38;98099.35;;;11.94;100.00
56992;BME280;42885;49.754;18.636;2022-09-13T05:21:09;98091.31;;;11.90;100.00
56992;BME280;42885;49.754;18.636;2022-09-13T05:23:39;98093.53;;;11.83;100.00
56992;BME280;42885;49.754;18.636;2022-09-13T05:26:10;98090.49;;;11.89;100.00
56992;BME280;42885;49.754;18.636;2022-09-13T05:28:41;98090.90;;;11.96;100.00
56992;BME280;42885;49.754;18.636;2022-09-13T05:31:17;98087.01;;;12.02;100.00
56992;BME280;42885;49.754;18.636;2022-09-13T05:33:54;98086.98;;;12.09;100.00
56992;BME280;42885;49.754;18.636;2022-09-13T05:36:26;98088.86;;;12.20;100.00
56992;BME280;42885;49.754;18.636;2022-09-13T05:38:56;98088.47;;;12.32;100.00
56992;BME280;42885;49.754;18.636;2022-09-13T05:41:27;98091.85;;;12.39;100.00
56992;BME280;42885;49.754;18.636;2022-09-13T05:44:16;98091.45;;;12.51;100.00
56992;BME280;42885;49.754;18.636;2022-09-13T05:46:54;98098.17;;;12.56;100.00
56992;BME280;42885;49.754;18.636;2022-09-13T05:49:26;98097.08;;;12.71;100.00
56992;BME280;42885;49.754;18.636;2022-09-13T05:51:56;98095.51;;;12.69;100.00
56992;BME280;42885;49.754;18.636;2022-09-13T05:54:28;98095.70;;;12.65;100.00
56992;BME280;42885;49.754;18.636;2022-09-13T05:56:59;98099.14;;;12.79;100.00
56992;BME280;42885;49.754;18.636;2022-09-13T05:59:33;98086.55;;;12.90;100.00
56992;BME280;42885;49.754;18.636;2022-09-13T06:02:05;98090.84;;;12.91;100.00
56992;BME280;42885;49.754;18.636;2022-09-13T06:04:36;98099.26;;;13.02;100.00
56992;BME280;42885;49.754;18.636;2022-09-13T06:07:10;98101.23;;;13.22;100.00
56992;BME280;42885;49.754;18.636;2022-09-13T06:09:42;98099.31;;;13.19;100.00
56992;BME280;42885;49.754;18.636;2022-09-13T06:12:14;98104.03;;;13.32;100.00
56992;BME280;42885;49.754;18.636;2022-09-13T06:14:46;98097.05;;;13.50;100.00
56992;BME280;42885;49.754;18.636;2022-09-13T06:17:17;98106.27;;;13.56;100.00
56992;BME280;42885;49.754;18.636;2022-09-13T06:19:48;98094.79;;;13.57;100.00
56992;BME280;42885;49.754;18.636;2022-09-13T06:22:20;98107.48;;;13.69;100.00
56992;BME280;42885;49.754;18.636;2022-09-13T06:24:51;98108.84;;;13.74;100.00
56992;BME280;42885;49.754;18.636;2022-09-13T06:27:29;98100.59;;;13.90;100.00
56992;BME280;42885;49.754;18.636;2022-09-13T06:30:00;98103.60;;;14.09;100.00
56992;BME280;42885;49.754;18.636;2022-09-13T06:32:31;98104.66;;;14.23;100.00
56992;BME280;42885;49.754;18.636;2022-09-13T06:35:03;98094.03;;;14.36;100.00
56992;BME280;42885;49.754;18.636;2022-09-13T06:37:34;98092.80;;;14.46;100.00
56992;BME280;42885;49.754;18.636;2022-09-13T06:40:06;98095.75;;;14.70;100.00
56992;BME280;42885;49.754;18.636;2022-09-13T06:42:38;98090.24;;;14.84;100.00
56992;BME280;42885;49.754;18.636;2022-09-13T06:45:11;98089.79;;;15.06;100.00
56992;BME280;42885;49.754;18.636;2022-09-13T06:47:42;98079.92;;;15.20;100.00
56992;BME280;42885;49.754;18.636;2022-09-13T06:50:17;98077.06;;;15.38;100.00
56992;BME280;42885;49.754;18.636;2022-09-13T06:52:48;98076.48;;;15.35;100.00
56992;BME280;42885;49.754;18.636;2022-09-13T06:55:18;98072.87;;;15.41;100.00
56992;BME280;42885;49.754;18.636;2022-09-13T06:57:50;98068.41;;;15.42;100.00
56992;BME280;42885;49.754;18.636;2022-09-13T07:00:21;98067.62;;;15.73;100.00
56992;BME280;42885;49.754;18.636;2022-09-13T07:02:52;98071.59;;;15.88;100.00
56992;BME280;42885;49.754;18.636;2022-09-13T07:05:23;98066.96;;;16.17;100.00
56992;BME280;42885;49.754;18.636;2022-09-13T07:07:54;98069.64;;;16.27;100.00
56992;BME280;42885;49.754;18.636;2022-09-13T07:10:25;98065.11;;;16.23;100.00
56992;BME280;42885;49.754;18.636;2022-09-13T07:12:56;98070.64;;;16.20;100.00
56992;BME280;42885;49.754;18.636;2022-09-13T07:15:27;98070.56;;;16.32;100.00
56992;BME280;42885;49.754;18.636;2022-09-13T07:17:58;98067.17;;;16.45;100.00
56992;BME280;42885;49.754;18.636;2022-09-13T07:20:29;98064.34;;;16.53;100.00
56992;BME280;42885;49.754;18.636;2022-09-13T07:22:59;98063.14;;;16.51;100.00
56992;BME280;42885;49.754;18.636;2022-09-13T07:25:30;98065.31;;;16.51;100.00
56992;BME280;42885;49.754;18.636;2022-09-13T07:28:01;98065.06;;;16.64;100.00
56992;BME280;42885;49.754;18.636;2022-09-13T07:30:33;98069.80;;;16.81;100.00
56992;BME280;42885;49.754;18.636;2022-09-13T07:33:03;98071.59;;;16.70;100.00
56992;BME280;42885;49.754;18.636;2022-09-13T07:35:34;98068.32;;;16.72;100.00
56992;BME280;42885;49.754;18.636;2022-09-13T07:38:05;98066.83;;;16.89;100.00
56992;BME280;42885;49.754;18.636;2022-09-13T07:40:36;98069.31;;;17.06;100.00
56992;BME280;42885;49.754;18.636;2022-09-13T07:43:06;98067.56;;;17.11;100.00
56992;BME280;42885;49.754;18.636;2022-09-13T07:45:37;98071.73;;;17.04;100.00
56992;BME280;42885;49.754;18.636;2022-09-13T07:48:08;98070.45;;;17.38;100.00
56992;BME280;42885;49.754;18.636;2022-09-13T07:50:39;98065.53;;;17.29;100.00
56992;BME280;42885;49.754;18.636;2022-09-13T07:53:09;98066.72;;;17.20;100.00
56992;BME280;42885;49.754;18.636;2022-09-13T07:55:40;98059.02;;;17.47;100.00
56992;BME280;42885;49.754;18.636;2022-09-13T07:58:11;98057.36;;;17.70;100.00
56992;BME280;42885;49.754;18.636;2022-09-13T08:00:42;98047.46;;;17.72;100.00
56992;BME280;42885;49.754;18.636;2022-09-13T08:03:13;98047.65;;;17.84;100.00
56992;BME280;42885;49.754;18.636;2022-09-13T08:05:44;98050.17;;;18.00;100.00
56992;BME280;42885;49.754;18.636;2022-09-13T08:08:14;98052.00;;;18.13;100.00
56992;BME280;42885;49.754;18.636;2022-09-13T08:10:46;98049.42;;;18.18;100.00
56992;BME280;42885;49.754;18.636;2022-09-13T08:13:16;98051.38;;;18.43;100.00
56992;BME280;42885;49.754;18.636;2022-09-13T08:15:47;98047.20;;;18.73;100.00
56992;BME280;42885;49.754;18.636;2022-09-13T08:18:19;98042.59;;;18.93;100.00
56992;BME280;42885;49.754;18.636;2022-09-13T08:20:49;98043.43;;;19.12;100.00
56992;BME280;42885;49.754;18.636;2022-09-13T08:23:20;98044.19;;;19.45;100.00
56992;BME280;42885;49.754;18.636;2022-09-13T08:25:51;98040.95;;;19.33;100.00
56992;BME280;42885;49.754;18.636;2022-09-13T08:28:22;98043.58;;;19.51;100.00
56992;BME280;42885;49.754;18.636;2022-09-13T08:30:53;98040.81;;;19.34;100.00
56992;BME280;42885;49.754;18.636;2022-09-13T08:33:24;98042.78;;;18.96;100.00
56992;BME280;42885;49.754;18.636;2022-09-13T08:35:55;98043.65;;;19.01;100.00
56992;BME280;42885;49.754;18.636;2022-09-13T08:38:27;98041.94;;;18.95;100.00
56992;BME280;42885;49.754;18.636;2022-09-13T08:41:17;98039.10;;;19.07;100.00
56992;BME280;42885;49.754;18.636;2022-09-13T08:43:48;98019.50;;;19.04;100.00
56992;BME280;42885;49.754;18.636;2022-09-13T08:46:28;98019.50;;;19.04;100.00
56992;BME280;42885;49.754;18.636;2022-09-13T08:49:04;98029.18;;;19.13;100.00
56992;BME280;42885;49.754;18.636;2022-09-13T08:51:53;98025.06;;;19.63;100.00
56992;BME280;42885;49.754;18.636;2022-09-13T08:54:26;98018.41;;;19.59;100.00
56992;BME280;42885;49.754;18.636;2022-09-13T08:57:16;98014.01;;;19.76;100.00
56992;BME280;42885;49.754;18.636;2022-09-13T09:00:17;98010.03;;;19.76;100.00
56992;BME280;42885;49.754;18.636;2022-09-13T09:05:35;98006.12;;;19.89;100.00
56992;BME280;42885;49.754;18.636;2022-09-13T09:08:27;98019.47;;;19.97;100.00
56992;BME280;42885;49.754;18.636;2022-09-13T09:11:02;98006.19;;;19.97;100.00
56992;BME280;42885;49.754;18.636;2022-09-13T09:13:46;98005.27;;;19.88;100.00
56992;BME280;42885;49.754;18.636;2022-09-13T09:19:20;98002.92;;;20.16;100.00
56992;BME280;42885;49.754;18.636;2022-09-13T09:21:51;98001.36;;;20.60;100.00
56992;BME280;42885;49.754;18.636;2022-09-13T09:24:23;97993.39;;;20.56;100.00
56992;BME280;42885;49.754;18.636;2022-09-13T09:26:56;97991.78;;;20.93;100.00
56992;BME280;42885;49.754;18.636;2022-09-13T09:29:29;97983.95;;;21.20;100.00
56992;BME280;42885;49.754;18.636;2022-09-13T09:35:27;97987.13;;;21.07;100.00
56992;BME280;42885;49.754;18.636;2022-09-13T09:38:18;97982.64;;;20.95;100.00
56992;BME280;42885;49.754;18.636;2022-09-13T09:40:48;97983.81;;;21.05;100.00
56992;BME280;42885;49.754;18.636;2022-09-13T09:43:38;97984.08;;;20.60;100.00
56992;BME280;42885;49.754;18.636;2022-09-13T09:46:04;97981.45;;;20.81;100.00
56992;BME280;42885;49.754;18.636;2022-09-13T09:48:42;97971.84;;;20.97;100.00
56992;BME280;42885;49.754;18.636;2022-09-13T09:51:14;97962.85;;;21.14;100.00
56992;BME280;42885;49.754;18.636;2022-09-13T09:54:05;97967.78;;;21.42;100.00
56992;BME280;42885;49.754;18.636;2022-09-13T09:56:49;97970.05;;;21.70;100.00
56992;BME280;42885;49.754;18.636;2022-09-13T10:02:18;97956.08;;;21.72;95.62
56992;BME280;42885;49.754;18.636;2022-09-13T10:04:55;97957.55;;;21.79;96.71
56992;BME280;42885;49.754;18.636;2022-09-13T10:07:35;97958.47;;;22.26;99.80
56992;BME280;42885;49.754;18.636;2022-09-13T10:10:24;97961.33;;;22.52;99.14
56992;BME280;42885;49.754;18.636;2022-09-13T10:12:55;97964.98;;;21.92;94.59
56992;BME280;42885;49.754;18.636;2022-09-13T10:15:29;97963.00;;;21.86;95.11
56992;BME280;42885;49.754;18.636;2022-09-13T10:18:14;97964.30;;;21.94;100.00
56992;BME280;42885;49.754;18.636;2022-09-13T10:23:32;97946.41;;;22.07;95.03
56992;BME280;42885;49.754;18.636;2022-09-13T10:26:04;97946.31;;;22.98;93.85
56992;BME280;42885;49.754;18.636;2022-09-13T10:28:48;97948.84;;;23.34;95.99
56992;BME280;42885;49.754;18.636;2022-09-13T10:31:19;97948.11;;;22.82;93.06
56992;BME280;42885;49.754;18.636;2022-09-13T10:34:16;97946.09;;;23.04;82.22
56992;BME280;42885;49.754;18.636;2022-09-13T10:36:33;97940.68;;;23.27;84.78
56992;BME280;42885;49.754;18.636;2022-09-13T10:39:16;97942.52;;;23.31;91.89
56992;BME280;42885;49.754;18.636;2022-09-13T10:41:55;97941.70;;;23.45;88.59
56992;BME280;42885;49.754;18.636;2022-09-13T10:47:31;97934.06;;;23.57;88.45
56992;BME280;42885;49.754;18.636;2022-09-13T10:52:51;97923.18;;;23.09;80.43
56992;BME280;42885;49.754;18.636;2022-09-13T10:55:25;97926.69;;;23.85;73.61
56992;BME280;42885;49.754;18.636;2022-09-13T11:06:29;97914.20;;;23.97;76.62
56992;BME280;42885;49.754;18.636;2022-09-13T11:09:11;97906.43;;;24.60;67.69
56992;BME280;42885;49.754;18.636;2022-09-13T11:14:39;97894.28;;;25.50;72.56
56992;BME280;42885;49.754;18.636;2022-09-13T11:17:18;97900.23;;;25.56;59.06
56992;BME280;42885;49.754;18.636;2022-09-13T11:20:03;97907.30;;;24.90;60.28
56992;BME280;42885;49.754;18.636;2022-09-13T11:29:19;97902.33;;;24.75;60.40
56992;BME280;42885;49.754;18.636;2022-09-13T11:35:23;97889.72;;;25.44;61.83
56992;BME280;42885;49.754;18.636;2022-09-13T11:38:32;97880.09;;;26.05;62.71
56992;BME280;42885;49.754;18.636;2022-09-13T11:41:22;97878.09;;;25.06;57.13
56992;BME280;42885;49.754;18.636;2022-09-13T11:44:31;97878.62;;;26.47;56.48
56992;BME280;42885;49.754;18.636;2022-09-13T11:47:07;97862.41;;;27.05;52.73
56992;BME280;42885;49.754;18.636;2022-09-13T11:55:32;97843.32;;;27.41;49.22
56992;BME280;42885;49.754;18.636;2022-09-13T12:00:56;97846.89;;;24.91;57.03
56992;BME280;42885;49.754;18.636;2022-09-13T12:06:45;97846.34;;;24.13;66.81
56992;BME280;42885;49.754;18.636;2022-09-13T12:09:28;97830.60;;;23.55;71.62
56992;BME280;42885;49.754;18.636;2022-09-13T12:12:05;97830.19;;;23.84;68.38
56992;BME280;42885;49.754;18.636;2022-09-13T12:14:56;97820.38;;;25.14;57.41
56992;BME280;42885;49.754;18.636;2022-09-13T12:17:51;97821.25;;;25.70;54.03
56992;BME280;42885;49.754;18.636;2022-09-13T12:23:04;97831.02;;;25.67;57.53
56992;BME280;42885;49.754;18.636;2022-09-13T12:25:50;97831.02;;;25.67;57.53
56992;BME280;42885;49.754;18.636;2022-09-13T12:28:41;97829.55;;;25.40;52.82
56992;BME280;42885;49.754;18.636;2022-09-13T12:31:25;97819.04;;;24.79;56.79
56992;BME280;42885;49.754;18.636;2022-09-13T12:33:59;97825.58;;;24.15;60.71
56992;BME280;42885;49.754;18.636;2022-09-13T12:52:30;97793.25;;;23.10;66.85
56992;BME280;42885;49.754;18.636;2022-09-13T13:01:54;97789.31;;;24.05;64.49
56992;BME280;42885;49.754;18.636;2022-09-13T13:07:29;97776.58;;;24.18;61.31
56992;BME280;42885;49.754;18.636;2022-09-13T13:10:01;97775.84;;;24.42;58.18
56992;BME280;42885;49.754;18.636;2022-09-13T13:12:35;97769.26;;;24.84;57.54
56992;BME280;42885;49.754;18.636;2022-09-13T13:18:54;97766.36;;;25.28;50.11
56992;BME280;42885;49.754;18.636;2022-09-13T13:21:42;97767.95;;;27.84;42.94
56992;BME280;42885;49.754;18.636;2022-09-13T13:27:47;97755.20;;;29.49;37.17
56992;BME280;42885;49.754;18.636;2022-09-13T13:30:48;97760.23;;;28.10;39.80
56992;BME280;42885;49.754;18.636;2022-09-13T13:33:21;97758.09;;;26.19;45.34
56992;BME280;42885;49.754;18.636;2022-09-13T13:35:56;97763.53;;;24.48;50.54
56992;BME280;42885;49.754;18.636;2022-09-13T13:38:41;97770.97;;;24.02;52.51
56992;BME280;42885;49.754;18.636;2022-09-13T13:47:41;97759.83;;;22.73;63.21
56992;BME280;42885;49.754;18.636;2022-09-13T13:55:00;97751.27;;;22.44;64.47
56992;BME280;42885;49.754;18.636;2022-09-13T13:57:35;97739.27;;;22.78;64.90
56992;BME280;42885;49.754;18.636;2022-09-13T14:00:22;97736.45;;;22.75;64.28
56992;BME280;42885;49.754;18.636;2022-09-13T14:05:48;97734.74;;;22.78;64.61
56992;BME280;42885;49.754;18.636;2022-09-13T14:08:25;97724.08;;;22.93;66.55
56992;BME280;42885;49.754;18.636;2022-09-13T14:11:22;97722.72;;;22.67;63.99
56992;BME280;42885;49.754;18.636;2022-09-13T14:14:40;97720.29;;;22.43;66.54
56992;BME280;42885;49.754;18.636;2022-09-13T14:17:26;97722.58;;;22.46;65.97
56992;BME280;42885;49.754;18.636;2022-09-13T14:20:02;97716.34;;;22.53;65.74
56992;BME280;42885;49.754;18.636;2022-09-13T14:22:28;97725.70;;;22.68;64.02
56992;BME280;42885;49.754;18.636;2022-09-13T14:27:55;97722.17;;;22.72;66.60
56992;BME280;42885;49.754;18.636;2022-09-13T14:30:31;97723.64;;;22.75;70.64
56992;BME280;42885;49.754;18.636;2022-09-13T14:33:03;97724.73;;;22.80;67.23
56992;BME280;42885;49.754;18.636;2022-09-13T14:35:36;97716.98;;;22.86;70.39
56992;BME280;42885;49.754;18.636;2022-09-13T14:38:21;97715.94;;;22.61;67.12
56992;BME280;42885;49.754;18.636;2022-09-13T14:40:57;97714.03;;;22.54;68.48
56992;BME280;42885;49.754;18.636;2022-09-13T14:43:31;97713.09;;;23.03;66.42
56992;BME280;42885;49.754;18.636;2022-09-13T14:48:47;97711.16;;;23.82;62.35
56992;BME280;42885;49.754;18.636;2022-09-13T14:51:34;97702.34;;;25.47;56.95
56992;BME280;42885;49.754;18.636;2022-09-13T14:54:07;97701.47;;;24.77;56.78
56992;BME280;42885;49.754;18.636;2022-09-13T14:56:40;97694.20;;;23.78;60.28
56992;BME280;42885;49.754;18.636;2022-09-13T14:59:29;97707.56;;;23.46;61.15
56992;BME280;42885;49.754;18.636;2022-09-13T15:02:15;97707.56;;;23.46;61.15
56992;BME280;42885;49.754;18.636;2022-09-13T15:04:40;97715.34;;;23.36;69.52
56992;BME280;42885;49.754;18.636;2022-09-13T15:07:38;97707.30;;;23.41;65.42
56992;BME280;42885;49.754;18.636;2022-09-13T15:25:59;97705.73;;;22.15;70.69
56992;BME280;42885;49.754;18.636;2022-09-13T15:29:23;97703.85;;;22.20;68.62
56992;BME280;42885;49.754;18.636;2022-09-13T15:33:25;97701.51;;;22.02;71.91
56992;BME280;42885;49.754;18.636;2022-09-13T15:36:24;97692.77;;;21.73;72.53
56992;BME280;42885;49.754;18.636;2022-09-13T15:42:15;97696.55;;;21.52;74.81
56992;BME280;42885;49.754;18.636;2022-09-13T15:45:21;97701.48;;;21.63;73.78
56992;BME280;42885;49.754;18.636;2022-09-13T15:48:00;97703.76;;;21.70;74.15
56992;BME280;42885;49.754;18.636;2022-09-13T15:50:32;97697.63;;;21.70;73.34
56992;BME280;42885;49.754;18.636;2022-09-13T15:53:08;97706.13;;;21.61;73.13
56992;BME280;42885;49.754;18.636;2022-09-13T15:55:41;97699.09;;;21.45;73.50
56992;BME280;42885;49.754;18.636;2022-09-13T15:58:12;97701.93;;;21.43;78.10
56992;BME280;42885;49.754;18.636;2022-09-13T16:00:43;97702.14;;;21.38;76.33
56992;BME280;42885;49.754;18.636;2022-09-13T16:03:14;97691.22;;;21.28;77.26
56992;BME280;42885;49.754;18.636;2022-09-13T16:05:45;97694.20;;;21.34;78.80
56992;BME280;42885;49.754;18.636;2022-09-13T16:08:16;97697.02;;;21.32;77.33